Grand Rapids, MI (49512)

6:45 PM EDT on July 31, 2015 (GMT -0400)
Kentwood | | Change Station
CLOSE
Current Station
Personal Weather Station
Location: Kentwood, MI
Elevation: 709 ft
Nearby Weather Stations

Elev 709 ft 42.90 °N, 85.59 °W | Updated 41 seconds ago

Partly Cloudy
Partly Cloudy
83.7 °F
Feels Like 82 °F
N
11.0
Wind Variable Wind from WNW
Gusts 11.0 mph

Today
High -- | Low -- °F
--% Chance of Precip.
Yesterday
High -- | Low -- °F
Precip. -- in
6:32 AM 9:04 PM
Full, 100% visible
Pressure 29.88 in
Visibility 10.0 miles
Clouds Few 6500 ft
Heat Index 82 °F
Dew Point 52 °F
Humidity 33%
Rainfall 0.00 in
Snow Depth Not available.
UV 4 out of 12
Pollen 7.60 out of 12
Air Quality Not available.
Flu Activity Not available.
METAR KGRR 312153Z 29015G24KT 10SM FEW065 27/09 A2989 RMK AO2 PK WND 27028/2124 SLP119 T02720094

More Conditions Fewer Conditions

Pressure 29.88 in
Visibility 10.0 miles
Clouds Few 6500 ft
Heat Index 82 °F
Dew Point 52 °F
Humidity 33%
Rainfall 0.00 in
Snow Depth Not available.
UV 4 out of 12
Pollen 7.60 out of 12
Air Quality Not available.
Flu Activity Not available.
METAR KGRR 312153Z 29015G24KT 10SM FEW065 27/09 A2989 RMK AO2 PK WND 27028/2124 SLP119 T02720094

More Conditions Fewer Conditions

10-Day Weather Forecast

×

Almanac

Astronomy

Jul. 31, 2015 Rise Set
Actual Time
Civil Twilight
Nautical Twilight
Astronomical Twilight
Moon
Length of Visible Light
Length of Day
Tomorrow will be .
, % of the Moon is Illuminated

Today's Extremes

State Highs State Lows

Community

WunderPhotos

Upload Photos

1,842,764 photos uploaded!

WunderBlogs® & News

Nearby

Air Quality

  Air Quality AQ Index Pollutant
Not available.

Snow Depth

Station Depth Elevation

Earthquake Activity

City Distance Mag. Time & Date
Minimum magnitude displayed is 2.5.

Coastal Water Temperatures

Place Temperature

Stations

Nearby Weather Stations

Station Location Temp. Windchill Dew Point Humidity Wind Precip. Elev Updated Type